sensor_id;sensor_type;location;lat;lon;timestamp;pressure;altitude;pressure_sealevel;temperature;humidity
39699;BME280;25372;50.582;12.250;2023-11-18T00:07:04;100343.34;;;3.13;87.32
39699;BME280;25372;50.582;12.250;2023-11-18T00:17:26;100365.22;;;3.01;86.95
39699;BME280;25372;50.582;12.250;2023-11-18T00:27:47;100374.81;;;2.98;86.40
39699;BME280;25372;50.582;12.250;2023-11-18T00:38:10;100403.56;;;2.90;86.98
39699;BME280;25372;50.582;12.250;2023-11-18T00:48:31;100410.72;;;2.80;88.39
39699;BME280;25372;50.582;12.250;2023-11-18T00:58:53;100417.56;;;2.83;90.23
39699;BME280;25372;50.582;12.250;2023-11-18T01:09:14;100424.50;;;2.82;90.21
39699;BME280;25372;50.582;12.250;2023-11-18T01:19:37;100427.34;;;2.71;88.87
39699;BME280;25372;50.582;12.250;2023-11-18T01:29:58;100431.56;;;2.75;89.58
39699;BME280;25372;50.582;12.250;2023-11-18T01:40:20;100439.25;;;2.80;89.96
39699;BME280;25372;50.582;12.250;2023-11-18T01:50:42;100443.81;;;2.69;89.12
39699;BME280;25372;50.582;12.250;2023-11-18T02:01:05;100450.53;;;2.77;90.04
39699;BME280;25372;50.582;12.250;2023-11-18T02:11:31;100445.41;;;2.74;89.50
39699;BME280;25372;50.582;12.250;2023-11-18T02:21:56;100458.31;;;2.77;89.40
39699;BME280;25372;50.582;12.250;2023-11-18T02:32:25;100459.19;;;2.78;90.37
39699;BME280;25372;50.582;12.250;2023-11-18T02:42:48;100450.56;;;2.76;89.84
39699;BME280;25372;50.582;12.250;2023-11-18T02:53:13;100467.88;;;2.75;89.35
39699;BME280;25372;50.582;12.250;2023-11-18T03:03:34;100471.44;;;2.70;89.08
39699;BME280;25372;50.582;12.250;2023-11-18T03:13:57;100469.75;;;2.69;90.18
39699;BME280;25372;50.582;12.250;2023-11-18T03:24:18;100481.06;;;2.64;89.67
39699;BME280;25372;50.582;12.250;2023-11-18T03:34:42;100480.19;;;2.20;90.60
39699;BME280;25372;50.582;12.250;2023-11-18T03:45:05;100491.50;;;2.16;93.41
39699;BME280;25372;50.582;12.250;2023-11-18T03:55:27;100493.81;;;1.81;94.37
39699;BME280;25372;50.582;12.250;2023-11-18T04:05:51;100491.28;;;1.79;94.90
39699;BME280;25372;50.582;12.250;2023-11-18T04:16:15;100504.94;;;1.88;94.55
39699;BME280;25372;50.582;12.250;2023-11-18T04:26:36;100496.09;;;2.00;94.12
39699;BME280;25372;50.582;12.250;2023-11-18T04:36:59;100511.75;;;2.42;91.88
39699;BME280;25372;50.582;12.250;2023-11-18T04:47:20;100519.31;;;2.53;92.21
39699;BME280;25372;50.582;12.250;2023-11-18T04:57:42;100521.91;;;2.53;91.61
39699;BME280;25372;50.582;12.250;2023-11-18T05:08:03;100517.53;;;2.57;91.66
39699;BME280;25372;50.582;12.250;2023-11-18T05:18:27;100526.97;;;2.61;91.41
39699;BME280;25372;50.582;12.250;2023-11-18T05:28:49;100535.47;;;2.68;90.76
39699;BME280;25372;50.582;12.250;2023-11-18T05:39:11;100528.72;;;2.59;90.88
39699;BME280;25372;50.582;12.250;2023-11-18T05:49:34;100537.22;;;2.67;91.44
39699;BME280;25372;50.582;12.250;2023-11-18T05:59:56;100552.81;;;2.65;91.83
39699;BME280;25372;50.582;12.250;2023-11-18T06:10:17;100548.47;;;2.66;93.79
39699;BME280;25372;50.582;12.250;2023-11-18T06:20:41;100555.75;;;2.47;95.35
39699;BME280;25372;50.582;12.250;2023-11-18T06:31:02;100571.50;;;2.36;96.75
39699;BME280;25372;50.582;12.250;2023-11-18T06:41:25;100569.69;;;2.40;97.08
39699;BME280;25372;50.582;12.250;2023-11-18T06:51:53;100581.91;;;2.34;97.78
39699;BME280;25372;50.582;12.250;2023-11-18T07:02:15;100579.16;;;2.44;97.69
39699;BME280;25372;50.582;12.250;2023-11-18T07:12:36;100594.72;;;2.44;96.55
39699;BME280;25372;50.582;12.250;2023-11-18T07:22:59;100594.94;;;2.30;97.07
39699;BME280;25372;50.582;12.250;2023-11-18T07:33:20;100590.69;;;2.26;99.02
39699;BME280;25372;50.582;12.250;2023-11-18T07:43:44;100597.81;;;2.63;96.27
39699;BME280;25372;50.582;12.250;2023-11-18T07:54:05;100615.59;;;2.83;97.17
39699;BME280;25372;50.582;12.250;2023-11-18T08:04:27;100626.59;;;2.96;94.60
39699;BME280;25372;50.582;12.250;2023-11-18T08:14:49;100636.34;;;2.83;95.72
39699;BME280;25372;50.582;12.250;2023-11-18T08:25:11;100635.78;;;2.67;96.39
39699;BME280;25372;50.582;12.250;2023-11-18T08:35:32;100665.38;;;3.02;95.40
39699;BME280;25372;50.582;12.250;2023-11-18T08:45:54;100663.78;;;3.41;92.51
39699;BME280;25372;50.582;12.250;2023-11-18T08:56:15;100673.03;;;3.53;94.13
39699;BME280;25372;50.582;12.250;2023-11-18T09:06:40;100669.94;;;3.77;93.17
39699;BME280;25372;50.582;12.250;2023-11-18T09:17:01;100672.47;;;3.79;89.84
39699;BME280;25372;50.582;12.250;2023-11-18T09:27:24;100679.47;;;4.16;88.87
39699;BME280;25372;50.582;12.250;2023-11-18T09:37:44;100672.66;;;4.47;88.55
39699;BME280;25372;50.582;12.250;2023-11-18T09:48:08;100669.16;;;4.48;84.33
39699;BME280;25372;50.582;12.250;2023-11-18T09:58:37;100671.47;;;4.59;83.17
39699;BME280;25372;50.582;12.250;2023-11-18T10:09:02;100671.09;;;5.08;82.53
39699;BME280;25372;50.582;12.250;2023-11-18T10:19:51;100658.31;;;4.65;78.77
39699;BME280;25372;50.582;12.250;2023-11-18T10:30:16;100671.53;;;4.90;78.06
39699;BME280;25372;50.582;12.250;2023-11-18T10:40:41;100668.06;;;4.90;77.11
39699;BME280;25372;50.582;12.250;2023-11-18T10:51:05;100657.19;;;5.39;77.93
39699;BME280;25372;50.582;12.250;2023-11-18T11:01:27;100658.81;;;5.43;70.82
39699;BME280;25372;50.582;12.250;2023-11-18T11:11:52;100650.63;;;5.25;70.56
39699;BME280;25372;50.582;12.250;2023-11-18T11:22:15;100658.69;;;5.76;70.41
39699;BME280;25372;50.582;12.250;2023-11-18T11:32:45;100681.44;;;5.41;65.19
39699;BME280;25372;50.582;12.250;2023-11-18T11:43:11;100660.38;;;5.49;64.78
39699;BME280;25372;50.582;12.250;2023-11-18T11:53:45;100645.81;;;5.71;65.95
39699;BME280;25372;50.582;12.250;2023-11-18T12:04:08;100642.81;;;5.84;66.95
39699;BME280;25372;50.582;12.250;2023-11-18T12:14:52;100619.72;;;5.43;66.09
39699;BME280;25372;50.582;12.250;2023-11-18T12:25:30;100601.84;;;5.60;65.20
39699;BME280;25372;50.582;12.250;2023-11-18T12:47:14;100594.44;;;4.53;68.56
39699;BME280;25372;50.582;12.250;2023-11-18T12:57:38;100572.91;;;4.48;69.96
39699;BME280;25372;50.582;12.250;2023-11-18T13:08:08;100567.50;;;4.56;68.76
39699;BME280;25372;50.582;12.250;2023-11-18T13:18:41;100576.94;;;4.92;70.93
39699;BME280;25372;50.582;12.250;2023-11-18T13:29:04;100562.66;;;5.35;67.26
39699;BME280;25372;50.582;12.250;2023-11-18T13:39:26;100579.91;;;5.09;73.79
39699;BME280;25372;50.582;12.250;2023-11-18T13:49:50;100571.00;;;4.20;76.83
39699;BME280;25372;50.582;12.250;2023-11-18T14:00:12;100577.22;;;3.80;79.59
39699;BME280;25372;50.582;12.250;2023-11-18T14:10:37;100560.66;;;3.84;83.57
39699;BME280;25372;50.582;12.250;2023-11-18T14:20:59;100554.69;;;4.15;85.27
39699;BME280;25372;50.582;12.250;2023-11-18T14:31:21;100551.31;;;3.76;85.13
39699;BME280;25372;50.582;12.250;2023-11-18T14:41:42;100551.06;;;3.48;88.33
39699;BME280;25372;50.582;12.250;2023-11-18T14:52:05;100543.09;;;3.18;89.75
39699;BME280;25372;50.582;12.250;2023-11-18T15:02:27;100521.63;;;2.67;90.51
39699;BME280;25372;50.582;12.250;2023-11-18T15:12:51;100535.34;;;2.27;92.18
39699;BME280;25372;50.582;12.250;2023-11-18T15:23:15;100541.59;;;1.64;94.21
39699;BME280;25372;50.582;12.250;2023-11-18T15:33:38;100502.00;;;1.54;95.86
39699;BME280;25372;50.582;12.250;2023-11-18T15:43:59;100481.56;;;0.76;95.75
39699;BME280;25372;50.582;12.250;2023-11-18T15:54:21;100478.66;;;0.31;97.00
39699;BME280;25372;50.582;12.250;2023-11-18T16:04:42;100483.00;;;0.27;97.79
39699;BME280;25372;50.582;12.250;2023-11-18T16:15:05;100455.53;;;0.15;98.84
39699;BME280;25372;50.582;12.250;2023-11-18T16:25:28;100446.91;;;0.18;98.07
39699;BME280;25372;50.582;12.250;2023-11-18T16:35:50;100434.63;;;0.37;98.19
39699;BME280;25372;50.582;12.250;2023-11-18T16:46:12;100451.22;;;0.20;99.20
39699;BME280;25372;50.582;12.250;2023-11-18T16:56:34;100421.75;;;0.35;98.69
39699;BME280;25372;50.582;12.250;2023-11-18T17:06:55;100430.19;;;0.48;99.07
39699;BME280;25372;50.582;12.250;2023-11-18T17:17:18;100431.56;;;0.77;99.79
39699;BME280;25372;50.582;12.250;2023-11-18T17:27:39;100404.91;;;0.72;100.00
39699;BME280;25372;50.582;12.250;2023-11-18T17:38:02;100422.88;;;0.81;100.00
39699;BME280;25372;50.582;12.250;2023-11-18T17:48:24;100372.53;;;1.04;100.00
39699;BME280;25372;50.582;12.250;2023-11-18T17:58:46;100374.09;;;1.15;99.66
39699;BME280;25372;50.582;12.250;2023-11-18T18:09:07;100374.81;;;1.23;99.55
39699;BME280;25372;50.582;12.250;2023-11-18T18:19:30;100353.16;;;1.29;100.00
39699;BME280;25372;50.582;12.250;2023-11-18T18:29:50;100328.66;;;1.48;99.85
39699;BME280;25372;50.582;12.250;2023-11-18T18:40:13;100314.09;;;1.43;97.32
39699;BME280;25372;50.582;12.250;2023-11-18T18:50:35;100292.09;;;1.65;96.55
39699;BME280;25372;50.582;12.250;2023-11-18T19:01:00;100289.69;;;1.56;97.71
39699;BME280;25372;50.582;12.250;2023-11-18T19:11:21;100267.91;;;1.66;94.84
39699;BME280;25372;50.582;12.250;2023-11-18T19:21:44;100265.44;;;1.60;94.76
39699;BME280;25372;50.582;12.250;2023-11-18T19:32:05;100250.78;;;1.59;92.81
39699;BME280;25372;50.582;12.250;2023-11-18T19:42:27;100239.41;;;1.68;94.60
39699;BME280;25372;50.582;12.250;2023-11-18T19:52:48;100232.53;;;1.67;94.56
39699;BME280;25372;50.582;12.250;2023-11-18T20:03:11;100221.38;;;1.62;95.29
39699;BME280;25372;50.582;12.250;2023-11-18T20:13:32;100187.56;;;1.70;90.95
39699;BME280;25372;50.582;12.250;2023-11-18T20:23:56;100180.41;;;1.81;94.03
39699;BME280;25372;50.582;12.250;2023-11-18T20:34:16;100174.41;;;1.79;90.69
39699;BME280;25372;50.582;12.250;2023-11-18T20:44:39;100180.47;;;1.79;92.30
39699;BME280;25372;50.582;12.250;2023-11-18T20:55:00;100155.38;;;1.81;93.76
39699;BME280;25372;50.582;12.250;2023-11-18T21:05:23;100151.63;;;1.95;92.36
39699;BME280;25372;50.582;12.250;2023-11-18T21:15:44;100110.81;;;2.05;92.23
39699;BME280;25372;50.582;12.250;2023-11-18T21:26:06;100103.88;;;2.05;93.30
39699;BME280;25372;50.582;12.250;2023-11-18T21:36:27;100102.28;;;2.00;94.09
39699;BME280;25372;50.582;12.250;2023-11-18T21:46:49;100077.78;;;2.13;92.47
39699;BME280;25372;50.582;12.250;2023-11-18T21:57:10;100052.84;;;2.09;92.03
39699;BME280;25372;50.582;12.250;2023-11-18T22:07:34;100044.75;;;2.21;92.67
39699;BME280;25372;50.582;12.250;2023-11-18T22:17:56;100025.25;;;2.41;91.97
39699;BME280;25372;50.582;12.250;2023-11-18T22:28:18;100044.31;;;2.38;92.14
39699;BME280;25372;50.582;12.250;2023-11-18T22:38:39;100037.19;;;2.47;91.17
39699;BME280;25372;50.582;12.250;2023-11-18T22:49:03;100006.28;;;2.39;93.98
39699;BME280;25372;50.582;12.250;2023-11-18T22:59:24;99997.09;;;2.27;98.12
39699;BME280;25372;50.582;12.250;2023-11-18T23:09:46;99976.66;;;2.48;98.94
39699;BME280;25372;50.582;12.250;2023-11-18T23:20:07;99956.25;;;2.35;100.00
39699;BME280;25372;50.582;12.250;2023-11-18T23:30:32;99911.16;;;2.41;100.00
39699;BME280;25372;50.582;12.250;2023-11-18T23:40:54;99877.50;;;2.40;100.00
39699;BME280;25372;50.582;12.250;2023-11-18T23:51:16;99833.84;;;2.26;100.00
